sensor_id;sensor_type;location;lat;lon;timestamp;pressure;altitude;pressure_sealevel;temperature;humidity
58239;BME280;44037;55.638;37.356;2023-06-22T00:02:21;99379.31;;;14.07;58.61
58239;BME280;44037;55.638;37.356;2023-06-22T00:04:50;99377.59;;;14.06;59.48
58239;BME280;44037;55.638;37.356;2023-06-22T00:07:17;99387.06;;;14.13;60.82
58239;BME280;44037;55.638;37.356;2023-06-22T00:09:44;99385.34;;;14.13;60.49
58239;BME280;44037;55.638;37.356;2023-06-22T00:12:11;99382.78;;;14.09;58.92
58239;BME280;44037;55.638;37.356;2023-06-22T00:14:38;99383.69;;;14.05;59.12
58239;BME280;44037;55.638;37.356;2023-06-22T00:17:05;99381.97;;;14.01;59.69
58239;BME280;44037;55.638;37.356;2023-06-22T00:19:32;99377.63;;;14.01;60.80
58239;BME280;44037;55.638;37.356;2023-06-22T00:22:02;99376.75;;;14.02;60.26
58239;BME280;44037;55.638;37.356;2023-06-22T00:24:30;99375.94;;;13.95;59.19
58239;BME280;44037;55.638;37.356;2023-06-22T00:26:57;99382.06;;;13.91;59.54
58239;BME280;44037;55.638;37.356;2023-06-22T00:29:24;99375.13;;;13.87;59.88
58239;BME280;44037;55.638;37.356;2023-06-22T00:31:51;99382.06;;;13.88;60.53
58239;BME280;44037;55.638;37.356;2023-06-22T00:34:18;99383.00;;;13.84;60.76
58239;BME280;44037;55.638;37.356;2023-06-22T00:36:45;99376.94;;;13.79;60.51
58239;BME280;44037;55.638;37.356;2023-06-22T00:39:13;99383.91;;;13.77;60.90
58239;BME280;44037;55.638;37.356;2023-06-22T00:41:41;99376.97;;;13.76;60.26
58239;BME280;44037;55.638;37.356;2023-06-22T00:44:08;99376.09;;;13.78;61.99
58239;BME280;44037;55.638;37.356;2023-06-22T00:46:35;99387.34;;;13.82;62.00
58239;BME280;44037;55.638;37.356;2023-06-22T00:49:03;99378.69;;;13.80;61.29
58239;BME280;44037;55.638;37.356;2023-06-22T00:51:31;99383.91;;;13.77;61.05
58239;BME280;44037;55.638;37.356;2023-06-22T00:53:59;99374.38;;;13.77;60.78
58239;BME280;44037;55.638;37.356;2023-06-22T00:56:28;99384.75;;;13.82;63.73
58239;BME280;44037;55.638;37.356;2023-06-22T00:58:56;99376.91;;;13.83;63.15
58239;BME280;44037;55.638;37.356;2023-06-22T01:01:25;99387.34;;;13.82;62.44
58239;BME280;44037;55.638;37.356;2023-06-22T01:03:52;99380.41;;;13.81;61.92
58239;BME280;44037;55.638;37.356;2023-06-22T01:06:40;99379.53;;;13.82;61.93
58239;BME280;44037;55.638;37.356;2023-06-22T01:09:15;99378.63;;;13.86;62.57
58239;BME280;44037;55.638;37.356;2023-06-22T01:11:53;99386.44;;;13.88;62.37
58239;BME280;44037;55.638;37.356;2023-06-22T01:14:27;99386.44;;;13.88;62.21
58239;BME280;44037;55.638;37.356;2023-06-22T01:16:56;99387.28;;;13.90;61.54
58239;BME280;44037;55.638;37.356;2023-06-22T01:19:34;99391.56;;;13.94;61.82
58239;BME280;44037;55.638;37.356;2023-06-22T01:22:03;99388.97;;;13.98;61.58
58239;BME280;44037;55.638;37.356;2023-06-22T01:24:40;99388.16;;;13.92;62.22
58239;BME280;44037;55.638;37.356;2023-06-22T01:27:21;99389.88;;;13.91;62.25
58239;BME280;44037;55.638;37.356;2023-06-22T01:29:55;99390.72;;;13.96;61.59
58239;BME280;44037;55.638;37.356;2023-06-22T01:32:28;99388.00;;;14.06;61.54
58239;BME280;44037;55.638;37.356;2023-06-22T01:34:57;99381.03;;;14.11;61.21
58239;BME280;44037;55.638;37.356;2023-06-22T01:37:26;99387.94;;;14.13;61.25
58239;BME280;44037;55.638;37.356;2023-06-22T01:39:54;99383.56;;;14.17;61.38
58239;BME280;44037;55.638;37.356;2023-06-22T01:42:23;99385.22;;;14.24;61.00
58239;BME280;44037;55.638;37.356;2023-06-22T01:44:53;99380.84;;;14.29;60.85
58239;BME280;44037;55.638;37.356;2023-06-22T01:47:21;99380.84;;;14.29;60.44
58239;BME280;44037;55.638;37.356;2023-06-22T01:49:49;99382.63;;;14.23;61.33
58239;BME280;44037;55.638;37.356;2023-06-22T01:52:17;99371.31;;;14.25;61.07
58239;BME280;44037;55.638;37.356;2023-06-22T01:54:46;99383.38;;;14.36;60.96
58239;BME280;44037;55.638;37.356;2023-06-22T01:57:13;99376.97;;;14.65;60.29
58239;BME280;44037;55.638;37.356;2023-06-22T01:59:46;99383.69;;;14.89;58.21
58239;BME280;44037;55.638;37.356;2023-06-22T02:02:19;99380.84;;;15.06;57.87
58239;BME280;44037;55.638;37.356;2023-06-22T02:04:56;99387.44;;;15.32;58.09
58239;BME280;44037;55.638;37.356;2023-06-22T02:07:28;99392.13;;;15.69;57.76
58239;BME280;44037;55.638;37.356;2023-06-22T02:09:58;99384.53;;;16.08;57.05
58239;BME280;44037;55.638;37.356;2023-06-22T02:12:26;99383.25;;;16.31;53.82
58239;BME280;44037;55.638;37.356;2023-06-22T02:14:55;99386.66;;;16.35;53.08
58239;BME280;44037;55.638;37.356;2023-06-22T02:17:25;99380.25;;;16.51;54.68
58239;BME280;44037;55.638;37.356;2023-06-22T02:19:53;99386.53;;;16.88;55.26
58239;BME280;44037;55.638;37.356;2023-06-22T02:22:20;99378.72;;;17.27;54.35
58239;BME280;44037;55.638;37.356;2023-06-22T02:24:47;99378.31;;;17.46;50.94
58239;BME280;44037;55.638;37.356;2023-06-22T02:27:14;99372.50;;;17.31;50.71
58239;BME280;44037;55.638;37.356;2023-06-22T02:29:41;99369.19;;;17.25;52.62
58239;BME280;44037;55.638;37.356;2023-06-22T02:32:08;99363.38;;;17.49;53.52
58239;BME280;44037;55.638;37.356;2023-06-22T02:34:37;99359.06;;;17.83;53.74
58239;BME280;44037;55.638;37.356;2023-06-22T02:37:04;99353.47;;;17.99;50.11
58239;BME280;44037;55.638;37.356;2023-06-22T02:39:31;99349.78;;;17.70;50.69
58239;BME280;44037;55.638;37.356;2023-06-22T02:41:58;99349.25;;;17.57;52.24
58239;BME280;44037;55.638;37.356;2023-06-22T02:44:25;99347.94;;;17.75;52.84
58239;BME280;44037;55.638;37.356;2023-06-22T02:46:52;99341.91;;;18.06;52.50
58239;BME280;44037;55.638;37.356;2023-06-22T02:49:20;99341.25;;;18.31;49.42
58239;BME280;44037;55.638;37.356;2023-06-22T02:51:48;99333.47;;;18.27;48.54
58239;BME280;44037;55.638;37.356;2023-06-22T02:54:16;99333.66;;;18.21;49.88
58239;BME280;44037;55.638;37.356;2023-06-22T02:56:43;99334.06;;;18.39;50.27
58239;BME280;44037;55.638;37.356;2023-06-22T02:59:10;99343.66;;;18.70;49.81
58239;BME280;44037;55.638;37.356;2023-06-22T03:01:37;99331.47;;;18.99;47.83
58239;BME280;44037;55.638;37.356;2023-06-22T03:04:06;99338.31;;;19.05;47.63
58239;BME280;44037;55.638;37.356;2023-06-22T03:06:33;99333.28;;;18.97;47.56
58239;BME280;44037;55.638;37.356;2023-06-22T03:09:03;99332.31;;;19.01;48.46
58239;BME280;44037;55.638;37.356;2023-06-22T03:11:31;99331.72;;;19.19;48.35
58239;BME280;44037;55.638;37.356;2023-06-22T03:13:58;99330.28;;;19.38;47.78
58239;BME280;44037;55.638;37.356;2023-06-22T03:16:26;99324.06;;;19.40;46.37
58239;BME280;44037;55.638;37.356;2023-06-22T03:18:53;99330.00;;;19.18;46.11
58239;BME280;44037;55.638;37.356;2023-06-22T03:21:22;99336.59;;;19.03;47.50
58239;BME280;44037;55.638;37.356;2023-06-22T03:23:49;99332.69;;;19.17;47.88
58239;BME280;44037;55.638;37.356;2023-06-22T03:26:18;99334.47;;;19.43;47.87
58239;BME280;44037;55.638;37.356;2023-06-22T03:28:46;99326.81;;;19.64;46.10
58239;BME280;44037;55.638;37.356;2023-06-22T03:31:13;99316.53;;;19.56;46.70
58239;BME280;44037;55.638;37.356;2023-06-22T03:33:40;99323.88;;;19.46;47.20
58239;BME280;44037;55.638;37.356;2023-06-22T03:36:07;99320.75;;;19.62;47.38
58239;BME280;44037;55.638;37.356;2023-06-22T03:38:35;99314.53;;;19.91;47.15
58239;BME280;44037;55.638;37.356;2023-06-22T03:41:02;99308.13;;;20.24;45.50
58239;BME280;44037;55.638;37.356;2023-06-22T03:43:30;99307.25;;;20.23;45.08
58239;BME280;44037;55.638;37.356;2023-06-22T03:45:58;99299.41;;;19.98;45.51
58239;BME280;44037;55.638;37.356;2023-06-22T03:48:25;99302.75;;;20.03;46.64
58239;BME280;44037;55.638;37.356;2023-06-22T03:50:52;99306.81;;;20.36;46.38
58239;BME280;44037;55.638;37.356;2023-06-22T03:53:19;99301.13;;;20.72;45.34
58239;BME280;44037;55.638;37.356;2023-06-22T03:55:49;99300.59;;;20.86;44.10
58239;BME280;44037;55.638;37.356;2023-06-22T03:58:17;99302.78;;;20.75;44.89
58239;BME280;44037;55.638;37.356;2023-06-22T04:00:46;99306.84;;;20.83;45.56
58239;BME280;44037;55.638;37.356;2023-06-22T04:03:13;99295.84;;;21.18;45.58
58239;BME280;44037;55.638;37.356;2023-06-22T04:05:41;99294.28;;;21.57;44.92
58239;BME280;44037;55.638;37.356;2023-06-22T04:08:08;99299.00;;;21.71;42.69
58239;BME280;44037;55.638;37.356;2023-06-22T04:10:35;99292.75;;;21.51;42.48
58239;BME280;44037;55.638;37.356;2023-06-22T04:13:02;99291.97;;;21.49;43.67
58239;BME280;44037;55.638;37.356;2023-06-22T04:15:29;99291.34;;;21.85;43.37
58239;BME280;44037;55.638;37.356;2023-06-22T04:17:58;99287.69;;;22.29;42.77
58239;BME280;44037;55.638;37.356;2023-06-22T04:20:25;99289.59;;;22.46;39.57
58239;BME280;44037;55.638;37.356;2023-06-22T04:22:52;99278.69;;;22.14;39.73
58239;BME280;44037;55.638;37.356;2023-06-22T04:25:20;99278.44;;;22.00;41.05
58239;BME280;44037;55.638;37.356;2023-06-22T04:27:48;99277.47;;;22.21;41.57
58239;BME280;44037;55.638;37.356;2023-06-22T04:30:15;99280.13;;;22.61;41.15
58239;BME280;44037;55.638;37.356;2023-06-22T04:32:42;99281.19;;;22.76;39.35
58239;BME280;44037;55.638;37.356;2023-06-22T04:35:11;99280.75;;;22.47;39.97
58239;BME280;44037;55.638;37.356;2023-06-22T04:37:39;99280.47;;;22.33;41.07
58239;BME280;44037;55.638;37.356;2023-06-22T04:40:07;99279.47;;;22.56;41.10
58239;BME280;44037;55.638;37.356;2023-06-22T04:42:35;99283.16;;;22.90;40.65
58239;BME280;44037;55.638;37.356;2023-06-22T04:45:03;99283.03;;;22.93;37.52
58239;BME280;44037;55.638;37.356;2023-06-22T04:47:31;99276.34;;;22.48;38.43
58239;BME280;44037;55.638;37.356;2023-06-22T04:49:58;99276.97;;;22.13;39.80
58239;BME280;44037;55.638;37.356;2023-06-22T04:52:32;99277.09;;;22.10;40.46
58239;BME280;44037;55.638;37.356;2023-06-22T04:54:59;99277.59;;;22.18;40.31
58239;BME280;44037;55.638;37.356;2023-06-22T04:57:26;99278.69;;;22.14;39.90
58239;BME280;44037;55.638;37.356;2023-06-22T04:59:58;99267.91;;;21.79;40.71
58239;BME280;44037;55.638;37.356;2023-06-22T05:02:40;99278.69;;;21.51;41.76
58239;BME280;44037;55.638;37.356;2023-06-22T05:05:08;99286.19;;;21.61;42.45
58239;BME280;44037;55.638;37.356;2023-06-22T05:07:42;99275.66;;;21.82;41.50
58239;BME280;44037;55.638;37.356;2023-06-22T05:10:10;99288.31;;;21.74;39.72
58239;BME280;44037;55.638;37.356;2023-06-22T05:12:38;99283.66;;;21.38;40.76
58239;BME280;44037;55.638;37.356;2023-06-22T05:15:07;99282.53;;;21.21;41.71
58239;BME280;44037;55.638;37.356;2023-06-22T05:17:35;99291.94;;;21.28;41.42
58239;BME280;44037;55.638;37.356;2023-06-22T05:20:03;99281.94;;;21.37;41.13
58239;BME280;44037;55.638;37.356;2023-06-22T05:22:32;99282.44;;;21.24;40.95
58239;BME280;44037;55.638;37.356;2023-06-22T05:25:00;99286.78;;;21.03;41.36
58239;BME280;44037;55.638;37.356;2023-06-22T05:27:29;99290.28;;;21.04;41.98
58239;BME280;44037;55.638;37.356;2023-06-22T05:29:56;99274.91;;;21.15;42.10
58239;BME280;44037;55.638;37.356;2023-06-22T05:32:23;99273.50;;;21.28;42.01
58239;BME280;44037;55.638;37.356;2023-06-22T05:34:50;99281.31;;;21.30;42.26
58239;BME280;44037;55.638;37.356;2023-06-22T05:37:17;99281.56;;;21.24;41.97
58239;BME280;44037;55.638;37.356;2023-06-22T05:39:44;99277.88;;;21.28;42.52
58239;BME280;44037;55.638;37.356;2023-06-22T05:42:13;99280.69;;;21.45;42.16
58239;BME280;44037;55.638;37.356;2023-06-22T05:44:40;99272.31;;;21.56;41.63
58239;BME280;44037;55.638;37.356;2023-06-22T05:47:07;99276.25;;;21.46;41.17
58239;BME280;44037;55.638;37.356;2023-06-22T05:49:34;99275.31;;;21.26;42.02
58239;BME280;44037;55.638;37.356;2023-06-22T05:52:02;99277.28;;;21.21;42.38
58239;BME280;44037;55.638;37.356;2023-06-22T05:54:30;99269.06;;;21.29;42.88
58239;BME280;44037;55.638;37.356;2023-06-22T05:56:57;99272.78;;;21.45;42.51
58239;BME280;44037;55.638;37.356;2023-06-22T05:59:25;99272.72;;;21.47;41.43
58239;BME280;44037;55.638;37.356;2023-06-22T06:01:52;99272.38;;;21.34;40.98
58239;BME280;44037;55.638;37.356;2023-06-22T06:04:19;99276.91;;;21.30;41.99
58239;BME280;44037;55.638;37.356;2023-06-22T06:06:46;99272.91;;;21.42;41.67
58239;BME280;44037;55.638;37.356;2023-06-22T06:09:14;99269.59;;;21.59;40.94
58239;BME280;44037;55.638;37.356;2023-06-22T06:11:41;99258.00;;;21.63;39.81
58239;BME280;44037;55.638;37.356;2023-06-22T06:14:08;99265.78;;;21.67;39.33
58239;BME280;44037;55.638;37.356;2023-06-22T06:16:36;99261.03;;;21.75;40.15
58239;BME280;44037;55.638;37.356;2023-06-22T06:19:03;99263.59;;;21.97;40.10
58239;BME280;44037;55.638;37.356;2023-06-22T06:21:30;99262.72;;;22.17;39.55
58239;BME280;44037;55.638;37.356;2023-06-22T06:23:57;99263.84;;;22.31;38.76
58239;BME280;44037;55.638;37.356;2023-06-22T06:26:25;99258.53;;;22.32;38.48
58239;BME280;44037;55.638;37.356;2023-06-22T06:28:56;99259.09;;;22.39;38.10
58239;BME280;44037;55.638;37.356;2023-06-22T06:31:23;99265.44;;;22.55;38.07
58239;BME280;44037;55.638;37.356;2023-06-22T06:33:54;99259.03;;;22.79;38.72
58239;BME280;44037;55.638;37.356;2023-06-22T06:36:21;99260.44;;;23.05;37.30
58239;BME280;44037;55.638;37.356;2023-06-22T06:38:48;99253.47;;;23.04;36.95
58239;BME280;44037;55.638;37.356;2023-06-22T06:41:16;99244.59;;;23.05;37.34
58239;BME280;44037;55.638;37.356;2023-06-22T06:43:43;99255.72;;;23.31;37.46
58239;BME280;44037;55.638;37.356;2023-06-22T06:46:10;99254.69;;;23.69;35.51
58239;BME280;44037;55.638;37.356;2023-06-22T06:48:37;99255.66;;;23.84;34.71
58239;BME280;44037;55.638;37.356;2023-06-22T06:51:06;99254.75;;;23.85;34.81
58239;BME280;44037;55.638;37.356;2023-06-22T06:53:35;99256.59;;;23.83;34.03
58239;BME280;44037;55.638;37.356;2023-06-22T06:56:03;99253.41;;;23.93;33.96
58239;BME280;44037;55.638;37.356;2023-06-22T06:58:30;99261.00;;;24.17;34.18
58239;BME280;44037;55.638;37.356;2023-06-22T07:00:58;99255.59;;;24.36;33.63
58239;BME280;44037;55.638;37.356;2023-06-22T07:03:25;99260.88;;;24.36;33.48
58239;BME280;44037;55.638;37.356;2023-06-22T07:05:52;99255.59;;;24.36;33.90
58239;BME280;44037;55.638;37.356;2023-06-22T07:08:20;99260.06;;;24.52;33.53
58239;BME280;44037;55.638;37.356;2023-06-22T07:10:47;99255.13;;;24.62;33.48
58239;BME280;44037;55.638;37.356;2023-06-22T07:13:14;99253.31;;;24.62;32.97
58239;BME280;44037;55.638;37.356;2023-06-22T07:15:41;99250.56;;;24.48;33.00
58239;BME280;44037;55.638;37.356;2023-06-22T07:18:08;99253.88;;;24.51;33.68
58239;BME280;44037;55.638;37.356;2023-06-22T07:20:36;99253.34;;;24.78;33.70
58239;BME280;44037;55.638;37.356;2023-06-22T07:23:04;99237.31;;;25.12;32.66
58239;BME280;44037;55.638;37.356;2023-06-22T07:25:33;99241.69;;;25.13;33.09
58239;BME280;44037;55.638;37.356;2023-06-22T07:28:01;99234.78;;;25.10;33.79
58239;BME280;44037;55.638;37.356;2023-06-22T07:30:29;99225.94;;;25.40;33.26
58239;BME280;44037;55.638;37.356;2023-06-22T07:32:57;99232.00;;;25.73;32.94
58239;BME280;44037;55.638;37.356;2023-06-22T07:35:30;99227.31;;;25.92;32.57
58239;BME280;44037;55.638;37.356;2023-06-22T07:37:57;99222.09;;;25.76;32.05
58239;BME280;44037;55.638;37.356;2023-06-22T07:40:24;99221.53;;;25.86;33.09
58239;BME280;44037;55.638;37.356;2023-06-22T07:42:52;99229.78;;;26.25;33.29
58239;BME280;44037;55.638;37.356;2023-06-22T07:45:20;99227.84;;;26.70;32.39
58239;BME280;44037;55.638;37.356;2023-06-22T07:47:47;99234.44;;;26.77;31.50
58239;BME280;44037;55.638;37.356;2023-06-22T07:50:14;99220.69;;;26.43;31.68
58239;BME280;44037;55.638;37.356;2023-06-22T07:52:41;99222.22;;;26.33;33.02
58239;BME280;44037;55.638;37.356;2023-06-22T07:55:08;99217.25;;;26.56;32.93
58239;BME280;44037;55.638;37.356;2023-06-22T07:57:35;99225.72;;;26.90;31.87
58239;BME280;44037;55.638;37.356;2023-06-22T08:00:05;99222.78;;;26.80;30.67
58239;BME280;44037;55.638;37.356;2023-06-22T08:02:39;99226.94;;;26.28;31.24
58239;BME280;44037;55.638;37.356;2023-06-22T08:05:07;99211.94;;;25.98;31.96
58239;BME280;44037;55.638;37.356;2023-06-22T08:07:35;99215.06;;;25.90;32.46
58239;BME280;44037;55.638;37.356;2023-06-22T08:10:03;99214.22;;;25.89;32.06
58239;BME280;44037;55.638;37.356;2023-06-22T08:12:31;99217.44;;;25.80;31.91
58239;BME280;44037;55.638;37.356;2023-06-22T08:14:58;99210.03;;;25.56;32.10
58239;BME280;44037;55.638;37.356;2023-06-22T08:17:26;99209.72;;;25.47;32.77
58239;BME280;44037;55.638;37.356;2023-06-22T08:19:53;99206.22;;;25.60;33.07
58239;BME280;44037;55.638;37.356;2023-06-22T08:22:20;99209.50;;;25.80;32.07
58239;BME280;44037;55.638;37.356;2023-06-22T08:24:47;99211.94;;;25.69;32.28
58239;BME280;44037;55.638;37.356;2023-06-22T08:27:15;99209.34;;;25.53;32.55
58239;BME280;44037;55.638;37.356;2023-06-22T08:29:44;99213.25;;;25.61;33.69
58239;BME280;44037;55.638;37.356;2023-06-22T08:32:12;99210.34;;;25.95;32.36
58239;BME280;44037;55.638;37.356;2023-06-22T08:34:40;99209.03;;;26.17;31.69
58239;BME280;44037;55.638;37.356;2023-06-22T08:37:09;99207.97;;;25.90;31.91
58239;BME280;44037;55.638;37.356;2023-06-22T08:39:36;99204.25;;;25.50;33.19
58239;BME280;44037;55.638;37.356;2023-06-22T08:42:05;99202.56;;;25.33;33.79
58239;BME280;44037;55.638;37.356;2023-06-22T08:44:32;99200.94;;;25.30;34.39
58239;BME280;44037;55.638;37.356;2023-06-22T08:46:59;99200.38;;;25.25;34.08
58239;BME280;44037;55.638;37.356;2023-06-22T08:49:26;99206.09;;;24.87;33.02
58239;BME280;44037;55.638;37.356;2023-06-22T08:51:55;99204.47;;;24.36;33.76
58239;BME280;44037;55.638;37.356;2023-06-22T08:54:22;99196.97;;;24.11;34.55
58239;BME280;44037;55.638;37.356;2023-06-22T08:56:49;99193.38;;;23.96;35.16
58239;BME280;44037;55.638;37.356;2023-06-22T08:59:16;99208.84;;;23.86;35.62
58239;BME280;44037;55.638;37.356;2023-06-22T09:01:43;99196.84;;;23.62;35.17
58239;BME280;44037;55.638;37.356;2023-06-22T09:04:14;99203.38;;;23.38;36.01
58239;BME280;44037;55.638;37.356;2023-06-22T09:06:42;99204.72;;;23.29;36.27
58239;BME280;44037;55.638;37.356;2023-06-22T09:09:15;99194.44;;;23.23;36.38
58239;BME280;44037;55.638;37.356;2023-06-22T09:11:43;99198.16;;;23.19;36.30
58239;BME280;44037;55.638;37.356;2023-06-22T09:14:10;99192.38;;;23.10;36.40
58239;BME280;44037;55.638;37.356;2023-06-22T09:16:37;99189.56;;;22.96;36.68
58239;BME280;44037;55.638;37.356;2023-06-22T09:19:04;99187.38;;;22.86;37.14
58239;BME280;44037;55.638;37.356;2023-06-22T09:21:31;99184.59;;;22.90;37.31
58239;BME280;44037;55.638;37.356;2023-06-22T09:23:58;99170.28;;;22.94;37.71
58239;BME280;44037;55.638;37.356;2023-06-22T09:26:26;99170.78;;;23.02;38.07
58239;BME280;44037;55.638;37.356;2023-06-22T09:28:53;99160.06;;;23.05;38.19
58239;BME280;44037;55.638;37.356;2023-06-22T09:31:20;99170.97;;;23.16;38.71
58239;BME280;44037;55.638;37.356;2023-06-22T09:33:52;99176.00;;;23.39;38.02
58239;BME280;44037;55.638;37.356;2023-06-22T09:36:20;99168.91;;;23.57;37.50
58239;BME280;44037;55.638;37.356;2023-06-22T09:38:47;99164.38;;;23.76;36.62
58239;BME280;44037;55.638;37.356;2023-06-22T09:41:14;99156.81;;;23.86;36.82
58239;BME280;44037;55.638;37.356;2023-06-22T09:43:42;99159.06;;;23.94;37.48
58239;BME280;44037;55.638;37.356;2023-06-22T09:46:10;99156.72;;;24.05;37.53
58239;BME280;44037;55.638;37.356;2023-06-22T09:48:37;99169.28;;;24.18;36.59
58239;BME280;44037;55.638;37.356;2023-06-22T09:51:04;99162.84;;;24.22;35.31
58239;BME280;44037;55.638;37.356;2023-06-22T09:53:31;99162.94;;;24.20;34.89
58239;BME280;44037;55.638;37.356;2023-06-22T09:56:00;99158.06;;;24.13;35.39
58239;BME280;44037;55.638;37.356;2023-06-22T09:58:27;99144.75;;;23.98;35.33
58239;BME280;44037;55.638;37.356;2023-06-22T10:00:55;99147.75;;;23.90;35.77
58239;BME280;44037;55.638;37.356;2023-06-22T10:03:22;99148.63;;;23.91;36.39
58239;BME280;44037;55.638;37.356;2023-06-22T10:05:50;99141.00;;;24.02;36.44
58239;BME280;44037;55.638;37.356;2023-06-22T10:08:17;99145.47;;;24.18;36.47
58239;BME280;44037;55.638;37.356;2023-06-22T10:10:44;99142.38;;;24.26;36.23
58239;BME280;44037;55.638;37.356;2023-06-22T10:13:11;99134.19;;;24.30;36.80
58239;BME280;44037;55.638;37.356;2023-06-22T10:15:38;99118.72;;;24.38;36.85
58239;BME280;44037;55.638;37.356;2023-06-22T10:18:07;99127.31;;;24.58;36.63
58239;BME280;44037;55.638;37.356;2023-06-22T10:20:34;99121.19;;;24.74;36.12
58239;BME280;44037;55.638;37.356;2023-06-22T10:23:01;99122.72;;;24.78;35.47
58239;BME280;44037;55.638;37.356;2023-06-22T10:25:28;99116.03;;;24.71;35.49
58239;BME280;44037;55.638;37.356;2023-06-22T10:27:55;99111.44;;;24.74;35.52
58239;BME280;44037;55.638;37.356;2023-06-22T10:30:22;99115.53;;;24.80;36.07
58239;BME280;44037;55.638;37.356;2023-06-22T10:32:49;99112.28;;;24.75;35.80
58239;BME280;44037;55.638;37.356;2023-06-22T10:35:18;99096.78;;;24.83;35.69
58239;BME280;44037;55.638;37.356;2023-06-22T10:37:46;99101.84;;;24.88;35.90
58239;BME280;44037;55.638;37.356;2023-06-22T10:40:14;99096.06;;;24.95;35.31
58239;BME280;44037;55.638;37.356;2023-06-22T10:42:41;99095.28;;;24.79;35.41
58239;BME280;44037;55.638;37.356;2023-06-22T10:45:09;99084.88;;;24.76;35.63
58239;BME280;44037;55.638;37.356;2023-06-22T10:47:36;99093.31;;;24.82;35.91
58239;BME280;44037;55.638;37.356;2023-06-22T10:50:05;99073.94;;;24.96;35.13
58239;BME280;44037;55.638;37.356;2023-06-22T10:52:33;99083.44;;;25.15;35.01
58239;BME280;44037;55.638;37.356;2023-06-22T10:55:00;99084.53;;;25.41;34.57
58239;BME280;44037;55.638;37.356;2023-06-22T10:57:30;99083.00;;;25.66;34.74
58239;BME280;44037;55.638;37.356;2023-06-22T10:59:57;99070.50;;;25.83;34.14
58239;BME280;44037;55.638;37.356;2023-06-22T11:02:24;99065.53;;;25.91;34.80
58239;BME280;44037;55.638;37.356;2023-06-22T11:04:53;99053.94;;;26.06;34.74
58239;BME280;44037;55.638;37.356;2023-06-22T11:07:20;99055.75;;;26.20;34.63
58239;BME280;44037;55.638;37.356;2023-06-22T11:09:49;99057.66;;;26.18;33.61
58239;BME280;44037;55.638;37.356;2023-06-22T11:12:16;99056.63;;;25.92;33.64
58239;BME280;44037;55.638;37.356;2023-06-22T11:14:43;99060.19;;;25.78;33.65
58239;BME280;44037;55.638;37.356;2023-06-22T11:17:10;99057.53;;;25.64;34.21
58239;BME280;44037;55.638;37.356;2023-06-22T11:19:37;99049.59;;;25.64;34.18
58239;BME280;44037;55.638;37.356;2023-06-22T11:22:05;99052.59;;;25.72;34.48
58239;BME280;44037;55.638;37.356;2023-06-22T11:24:32;99054.00;;;25.77;34.33
58239;BME280;44037;55.638;37.356;2023-06-22T11:27:00;99056.41;;;25.82;34.39
58239;BME280;44037;55.638;37.356;2023-06-22T11:29:28;99047.72;;;25.93;34.42
58239;BME280;44037;55.638;37.356;2023-06-22T11:31:55;99046.84;;;26.07;34.72
58239;BME280;44037;55.638;37.356;2023-06-22T11:34:23;99049.03;;;26.42;35.00
58239;BME280;44037;55.638;37.356;2023-06-22T11:36:50;99046.28;;;26.84;34.01
58239;BME280;44037;55.638;37.356;2023-06-22T11:39:17;99042.38;;;27.16;31.99
58239;BME280;44037;55.638;37.356;2023-06-22T11:41:44;99038.75;;;27.17;31.16
58239;BME280;44037;55.638;37.356;2023-06-22T11:44:12;99033.34;;;27.05;31.75
58239;BME280;44037;55.638;37.356;2023-06-22T11:46:39;99033.00;;;26.97;31.30
58239;BME280;44037;55.638;37.356;2023-06-22T11:49:07;99025.25;;;26.94;31.32
58239;BME280;44037;55.638;37.356;2023-06-22T11:51:34;99030.13;;;27.00;32.61
58239;BME280;44037;55.638;37.356;2023-06-22T11:54:02;99016.84;;;27.13;31.64
58239;BME280;44037;55.638;37.356;2023-06-22T11:56:30;99020.25;;;27.02;31.24
58239;BME280;44037;55.638;37.356;2023-06-22T11:58:57;99009.84;;;26.86;31.71
58239;BME280;44037;55.638;37.356;2023-06-22T12:01:26;99015.22;;;26.85;30.96
58239;BME280;44037;55.638;37.356;2023-06-22T12:03:53;99015.16;;;26.86;31.02
58239;BME280;44037;55.638;37.356;2023-06-22T12:06:20;98999.09;;;27.01;31.80
58239;BME280;44037;55.638;37.356;2023-06-22T12:08:47;99005.03;;;27.17;31.08
58239;BME280;44037;55.638;37.356;2023-06-22T12:11:14;99006.44;;;27.10;30.34
58239;BME280;44037;55.638;37.356;2023-06-22T12:13:41;98994.53;;;26.90;30.73
58239;BME280;44037;55.638;37.356;2023-06-22T12:16:08;98996.50;;;26.73;30.66
58239;BME280;44037;55.638;37.356;2023-06-22T12:18:36;98991.50;;;26.56;31.06
58239;BME280;44037;55.638;37.356;2023-06-22T12:21:03;98983.81;;;26.38;31.70
58239;BME280;44037;55.638;37.356;2023-06-22T12:23:30;98989.75;;;26.29;32.20
58239;BME280;44037;55.638;37.356;2023-06-22T12:25:57;98981.22;;;26.24;32.83
58239;BME280;44037;55.638;37.356;2023-06-22T12:28:25;98982.09;;;26.24;32.93
58239;BME280;44037;55.638;37.356;2023-06-22T12:30:52;98976.66;;;26.26;32.68
58239;BME280;44037;55.638;37.356;2023-06-22T12:33:20;98965.28;;;26.24;32.59
58239;BME280;44037;55.638;37.356;2023-06-22T12:35:48;98965.09;;;26.27;32.93
58239;BME280;44037;55.638;37.356;2023-06-22T12:38:15;98970.13;;;26.44;33.69
58239;BME280;44037;55.638;37.356;2023-06-22T12:40:42;98963.91;;;26.71;33.25
58239;BME280;44037;55.638;37.356;2023-06-22T12:43:09;98971.88;;;26.97;33.23
58239;BME280;44037;55.638;37.356;2023-06-22T12:45:36;98964.44;;;27.15;32.68
58239;BME280;44037;55.638;37.356;2023-06-22T12:48:05;98962.41;;;27.06;32.96
58239;BME280;44037;55.638;37.356;2023-06-22T12:50:32;98957.22;;;27.04;32.94
58239;BME280;44037;55.638;37.356;2023-06-22T12:53:00;98962.09;;;27.10;32.65
58239;BME280;44037;55.638;37.356;2023-06-22T12:55:29;98957.72;;;27.22;32.95